Time;durP1;ratioP1;P1;durP2;ratioP2;P2;SDS_P1;SDS_P2;PMS_P1;PMS_P2;Temp;Humidity;BMP_temperature;BMP_pressure;BME280_temperature;BME280_humidity;BME280_pressure;Samples;Min_cycle;Max_cycle;Signal;HPM_P1;HPM_P2
2023/01/12 00:02:13;;;;;;;0.50;0.50;;;4.60;99.90;;;;;;4995396;28;20203;-76
2023/01/12 00:04:39;;;;;;;0.50;0.50;;;4.70;99.90;;;;;;5014768;28;20230;-75
2023/01/12 00:07:09;;;;;;;0.60;0.60;;;4.70;99.90;;;;;;5013668;28;20199;-75
2023/01/12 00:09:35;;;;;;;0.50;0.50;;;4.70;99.90;;;;;;5014750;28;20191;-76
2023/01/12 00:12:07;;;;;;;0.50;0.50;;;4.70;99.90;;;;;;5014021;28;20206;-75
2023/01/12 00:14:37;;;;;;;0.60;0.60;;;4.70;99.90;;;;;;5014868;28;20191;-75
2023/01/12 00:17:05;;;;;;;0.70;0.70;;;4.70;99.90;;;;;;5014548;28;20669;-75
2023/01/12 00:19:31;;;;;;;0.80;0.80;;;4.80;99.90;;;;;;5014686;28;20561;-76
2023/01/12 00:22:07;;;;;;;0.77;0.77;;;4.80;99.90;;;;;;5012806;28;20641;-75
2023/01/12 00:24:48;;;;;;;0.80;0.80;;;4.80;99.90;;;;;;5013872;28;20202;-75
2023/01/12 00:27:16;;;;;;;1.65;1.55;;;4.90;99.90;;;;;;5014519;28;20248;-75
2023/01/12 00:29:42;;;;;;;0.60;0.60;;;4.90;99.90;;;;;;5012523;28;20245;-75
2023/01/12 00:32:12;;;;;;;0.65;0.65;;;4.90;99.90;;;;;;5002697;28;20208;-75
2023/01/12 00:34:38;;;;;;;0.60;0.60;;;4.90;99.90;;;;;;4994707;28;20338;-75
2023/01/12 00:37:04;;;;;;;0.50;0.50;;;4.90;99.90;;;;;;4994985;28;20244;-76
2023/01/12 00:39:29;;;;;;;0.60;0.60;;;4.90;99.90;;;;;;4994394;28;20191;-75
2023/01/12 00:47:24;;;;;;;0.80;0.80;;;4.90;99.90;;;;;;5014428;28;20221;-75
2023/01/12 00:49:50;;;;;;;1.00;1.00;;;5.00;99.90;;;;;;5012972;28;20195;-76
2023/01/12 00:52:18;;;;;;;0.70;0.70;;;4.90;99.90;;;;;;5014012;28;20210;-75
2023/01/12 00:54:44;;;;;;;0.90;0.90;;;4.90;99.90;;;;;;5013989;28;20199;-75
2023/01/12 00:57:12;;;;;;;0.60;0.60;;;4.90;99.90;;;;;;5013886;28;20210;-75
2023/01/12 00:59:38;;;;;;;0.55;0.55;;;4.90;99.90;;;;;;5013670;28;20269;-75
2023/01/12 01:02:04;;;;;;;0.60;0.60;;;4.90;99.90;;;;;;5013671;28;20650;-75
2023/01/12 01:04:31;;;;;;;0.60;0.60;;;4.90;99.90;;;;;;5028203;28;20250;-76
2023/01/12 01:06:57;;;;;;;0.63;0.63;;;4.80;99.90;;;;;;5013750;28;20201;-75
2023/01/12 01:09:22;;;;;;;0.50;0.50;;;4.80;99.90;;;;;;5001714;28;20207;-74
2023/01/12 01:11:48;;;;;;;0.60;0.60;;;4.90;99.90;;;;;;4993966;28;20584;-75
2023/01/12 01:14:14;;;;;;;0.60;0.60;;;4.90;99.90;;;;;;4994066;28;20195;-75
2023/01/12 01:16:40;;;;;;;0.60;0.60;;;4.80;99.90;;;;;;4993249;28;20199;-74
2023/01/12 01:19:05;;;;;;;0.50;0.50;;;4.90;99.90;;;;;;4993826;28;20215;-74
2023/01/12 01:21:32;;;;;;;0.70;0.70;;;4.80;99.90;;;;;;5008588;28;20195;-74
2023/01/12 01:23:59;;;;;;;0.50;0.50;;;4.90;99.90;;;;;;4994322;28;20648;-74
2023/01/12 01:26:25;;;;;;;0.50;0.50;;;4.90;99.90;;;;;;4993632;28;20278;-75
2023/01/12 01:28:51;;;;;;;0.50;0.50;;;4.90;99.90;;;;;;4994292;28;20203;-76
2023/01/12 01:31:22;;;;;;;0.70;0.70;;;4.90;99.90;;;;;;4993470;28;20654;-74
2023/01/12 01:33:49;;;;;;;7.15;1.98;;;4.90;99.90;;;;;;4993869;28;20206;-75
2023/01/12 01:36:15;;;;;;;0.60;0.60;;;4.80;99.90;;;;;;4993964;28;20796;-75
2023/01/12 01:38:46;;;;;;;0.80;0.80;;;4.80;99.90;;;;;;4993445;28;20274;-74
2023/01/12 01:41:27;;;;;;;0.73;0.73;;;4.80;99.90;;;;;;4993927;28;20202;-75
2023/01/12 01:43:58;;;;;;;1.40;1.33;;;4.80;99.90;;;;;;4993553;28;20237;-75
2023/01/12 01:46:46;;;;;;;0.50;0.50;;;4.80;99.90;;;;;;5008621;28;20273;-74
2023/01/12 01:49:24;;;;;;;0.60;0.60;;;4.80;99.90;;;;;;5008759;28;20218;-74
2023/01/12 01:51:53;;;;;;;0.60;0.60;;;4.80;99.90;;;;;;4993910;28;20195;-75
2023/01/12 01:54:19;;;;;;;0.70;0.70;;;4.80;99.90;;;;;;4993861;28;20600;-75
2023/01/12 01:56:46;;;;;;;0.70;0.70;;;4.80;99.90;;;;;;4993755;28;20207;-75
2023/01/12 01:59:22;;;;;;;0.55;0.55;;;4.70;99.90;;;;;;4993829;28;20196;-75
2023/01/12 02:04:24;;;;;;;0.70;0.70;;;4.70;99.90;;;;;;4985274;28;20246;-74
2023/01/12 02:06:55;;;;;;;0.60;0.60;;;4.80;99.90;;;;;;4957304;28;20331;-75
2023/01/12 02:09:25;;;;;;;0.60;0.60;;;4.80;99.90;;;;;;4974849;28;20592;-73
2023/01/12 02:18:00;;;;;;;0.70;0.70;;;4.80;99.90;;;;;;4974591;28;20219;-74
2023/01/12 02:21:01;;;;;;;;;;;;;;;;;;;;;
2023/01/12 02:23:42;;;;;;;0.70;0.70;;;4.90;99.90;;;;;;4974012;28;20208;-74
2023/01/12 02:26:23;;;;;;;0.63;0.63;;;4.90;99.90;;;;;;4956344;28;20259;-74
2023/01/12 02:29:25;;;;;;;0.70;0.70;;;4.90;99.90;;;;;;4974137;28;20200;-74
2023/01/12 02:32:00;;;;;;;0.70;0.70;;;4.90;99.90;;;;;;4972767;28;20266;-75
2023/01/12 02:34:47;;;;;;;0.60;0.60;;;4.90;99.90;;;;;;4972293;28;20211;-74
2023/01/12 02:37:22;;;;;;;2.65;1.50;;;4.80;99.90;;;;;;4973464;28;20204;-74
2023/01/12 02:39:58;;;;;;;0.50;0.50;;;4.80;99.90;;;;;;4954846;28;20250;-75
2023/01/12 02:42:41;;;;;;;0.50;0.50;;;4.80;99.90;;;;;;4953862;28;20208;-75
2023/01/12 02:45:35;;;;;;;0.70;0.70;;;4.80;99.90;;;;;;4958249;29;20750;-75
2023/01/12 02:48:20;;;;;;;0.50;0.50;;;4.80;99.90;;;;;;4947596;28;20213;-75
2023/01/12 02:51:12;;;;;;;1.85;1.75;;;4.80;99.90;;;;;;4956920;28;20193;-75
2023/01/12 02:54:00;;;;;;;0.60;0.60;;;4.80;99.90;;;;;;4956632;29;20637;-74
2023/01/12 02:56:37;;;;;;;0.47;0.47;;;4.80;99.90;;;;;;4956577;28;20751;-75
2023/01/12 02:59:19;;;;;;;0.70;0.70;;;4.80;99.90;;;;;;4956603;29;20200;-74
2023/01/12 03:01:48;;;;;;;0.60;0.60;;;4.80;99.90;;;;;;4970583;28;20227;-74
2023/01/12 03:04:16;;;;;;;0.50;0.50;;;4.80;99.90;;;;;;4964755;28;20273;-73
2023/01/12 03:07:06;;;;;;;0.60;0.60;;;4.80;99.90;;;;;;4994499;28;20207;-74
2023/01/12 03:09:50;;;;;;;0.68;0.68;;;4.80;99.90;;;;;;4978122;28;20246;-74
2023/01/12 03:12:32;;;;;;;0.70;0.70;;;4.90;99.90;;;;;;4996591;28;20682;-75
2023/01/12 03:15:01;;;;;;;0.60;0.60;;;4.90;99.90;;;;;;4978957;28;20290;-75
2023/01/12 03:17:32;;;;;;;0.70;0.70;;;4.90;99.90;;;;;;4994773;28;20280;-75
2023/01/12 03:20:06;;;;;;;0.65;0.65;;;4.90;99.90;;;;;;4956194;28;20208;-74
2023/01/12 03:22:35;;;;;;;0.73;0.73;;;4.90;99.90;;;;;;4957402;29;20218;-74
2023/01/12 03:25:09;;;;;;;0.80;0.80;;;4.90;99.90;;;;;;4940162;29;20241;-75
2023/01/12 03:27:41;;;;;;;0.70;0.70;;;4.90;99.90;;;;;;4957238;29;20247;-75
2023/01/12 03:30:18;;;;;;;0.70;0.70;;;5.00;99.90;;;;;;4940282;29;20656;-75
2023/01/12 03:32:47;;;;;;;0.60;0.60;;;5.00;99.90;;;;;;4957385;29;20267;-74
2023/01/12 03:35:13;;;;;;;0.70;0.70;;;5.00;99.90;;;;;;4974290;28;20224;-75
2023/01/12 03:37:59;;;;;;;0.55;0.55;;;5.00;99.90;;;;;;4971479;28;20224;-73
2023/01/12 03:40:36;;;;;;;0.70;0.70;;;5.00;99.90;;;;;;4955829;29;20565;-73
2023/01/12 03:43:24;;;;;;;0.70;0.70;;;5.00;99.90;;;;;;4955788;29;20201;-73
2023/01/12 03:46:21;;;;;;;1.38;1.08;;;5.00;99.90;;;;;;4957178;29;20193;-73
2023/01/12 03:49:05;;;;;;;0.60;0.60;;;5.00;99.90;;;;;;4955713;29;20347;-73
2023/01/12 03:51:38;;;;;;;0.60;0.60;;;5.00;99.90;;;;;;4956973;29;20263;-75
2023/01/12 03:54:06;;;;;;;0.60;0.60;;;5.00;99.90;;;;;;4956689;28;20228;-75
2023/01/12 03:56:35;;;;;;;0.90;0.90;;;5.00;99.90;;;;;;4956556;29;20254;-74
2023/01/12 03:59:14;;;;;;;0.68;0.68;;;5.00;99.90;;;;;;4959290;28;20218;-71
2023/01/12 04:01:47;;;;;;;0.57;0.57;;;5.10;99.90;;;;;;4980805;28;20212;-72
2023/01/12 04:04:13;;;;;;;0.57;0.57;;;5.10;99.90;;;;;;4974705;28;20228;-72
2023/01/12 04:06:39;;;;;;;0.50;0.50;;;5.10;99.90;;;;;;4958763;28;20208;-72
2023/01/12 04:09:05;;;;;;;0.50;0.50;;;5.10;99.90;;;;;;4974792;28;20193;-70
2023/01/12 04:14:15;;;;;;;0.73;0.70;;;5.10;99.90;;;;;;4976175;28;20247;-71
2023/01/12 04:16:41;;;;;;;0.60;0.60;;;5.10;99.90;;;;;;4975760;28;20655;-71
2023/01/12 04:19:06;;;;;;;0.60;0.60;;;5.10;99.90;;;;;;4958490;28;20200;-71
2023/01/12 04:24:16;;;;;;;0.57;0.57;;;5.10;99.90;;;;;;4975644;28;20295;-71
2023/01/12 04:26:42;;;;;;;0.70;0.70;;;5.10;99.90;;;;;;4975012;28;20291;-71
2023/01/12 04:29:07;;;;;;;0.70;0.70;;;5.10;99.90;;;;;;4975337;28;20242;-70
2023/01/12 04:31:33;;;;;;;0.60;0.60;;;5.10;99.90;;;;;;4958121;28;20199;-71
2023/01/12 04:33:59;;;;;;;0.50;0.50;;;5.10;99.90;;;;;;4975410;28;20683;-70
2023/01/12 04:36:25;;;;;;;0.68;0.68;;;5.10;99.90;;;;;;4958085;28;20207;-71
2023/01/12 04:38:53;;;;;;;0.55;0.55;;;5.10;99.90;;;;;;4954892;28;20211;-71
2023/01/12 04:41:19;;;;;;;0.70;0.70;;;5.10;99.90;;;;;;4955876;29;20197;-70
2023/01/12 04:43:45;;;;;;;0.65;0.65;;;5.10;99.90;;;;;;4954673;29;20219;-71
2023/01/12 04:46:11;;;;;;;0.70;0.70;;;5.10;99.90;;;;;;4955931;29;20205;-70
2023/01/12 04:48:38;;;;;;;0.60;0.60;;;5.10;99.90;;;;;;4967423;28;20254;-71
2023/01/12 04:51:07;;;;;;;0.60;0.60;;;5.10;99.90;;;;;;4994624;28;20188;-70
2023/01/12 04:53:35;;;;;;;0.60;0.60;;;5.10;99.90;;;;;;4971851;28;20203;-71
2023/01/12 04:56:05;;;;;;;0.50;0.50;;;5.10;99.90;;;;;;4975229;28;20278;-70
2023/01/12 04:58:34;;;;;;;0.68;0.68;;;5.10;99.90;;;;;;4974683;28;20212;-70
2023/01/12 05:01:14;;;;;;;0.52;0.52;;;5.10;99.90;;;;;;4957533;28;20200;-70
2023/01/12 05:03:47;;;;;;;0.60;0.60;;;5.10;99.90;;;;;;4967393;28;20252;-71
2023/01/12 05:06:15;;;;;;;0.60;0.60;;;5.10;99.90;;;;;;4974282;28;20188;-71
2023/01/12 05:11:27;;;;;;;0.70;0.70;;;5.10;99.90;;;;;;4974761;28;20207;-71
2023/01/12 05:13:54;;;;;;;0.50;0.50;;;5.00;99.90;;;;;;4990002;28;20235;-72
2023/01/12 05:16:20;;;;;;;0.45;0.45;;;5.00;99.90;;;;;;4989582;28;20222;-70
2023/01/12 05:18:46;;;;;;;0.50;0.50;;;5.00;99.90;;;;;;4973388;28;20577;-71
2023/01/12 05:21:16;;;;;;;0.70;0.70;;;5.00;99.90;;;;;;4974173;28;20203;-71
2023/01/12 05:23:43;;;;;;;0.50;0.50;;;5.00;99.90;;;;;;4988925;28;20218;-71
2023/01/12 05:26:14;;;;;;;1.38;1.13;;;5.00;99.90;;;;;;4973564;28;20305;-70
2023/01/12 05:28:39;;;;;;;0.55;0.55;;;5.00;99.90;;;;;;4974583;28;20196;-70
2023/01/12 05:31:13;;;;;;;0.68;0.68;;;5.00;99.90;;;;;;4974384;28;20283;-71
2023/01/12 05:33:43;;;;;;;0.60;0.60;;;5.00;99.90;;;;;;4974420;28;20351;-71
2023/01/12 05:36:11;;;;;;;0.70;0.70;;;5.00;99.90;;;;;;4973347;28;20200;-71
2023/01/12 05:38:40;;;;;;;0.50;0.50;;;5.00;99.90;;;;;;4974188;28;20200;-71
2023/01/12 05:41:08;;;;;;;0.50;0.50;;;5.00;99.90;;;;;;4973912;28;20208;-71
2023/01/12 05:43:50;;;;;;;0.60;0.60;;;5.00;99.90;;;;;;4988965;28;20721;-71
2023/01/12 05:46:39;;;;;;;0.50;0.50;;;5.00;99.90;;;;;;4974803;28;20198;-71
2023/01/12 05:49:04;;;;;;;0.60;0.60;;;5.00;99.90;;;;;;4965192;28;20215;-71
2023/01/12 05:51:31;;;;;;;0.50;0.50;;;4.90;99.90;;;;;;4988782;28;20196;-71
2023/01/12 05:53:57;;;;;;;0.55;0.55;;;4.90;99.90;;;;;;4986118;28;20212;-70
2023/01/12 05:56:32;;;;;;;0.50;0.50;;;4.90;99.90;;;;;;4992502;28;20203;-71
2023/01/12 05:59:00;;;;;;;0.70;0.70;;;4.90;99.90;;;;;;4992407;28;20273;-71
2023/01/12 06:01:30;;;;;;;0.60;0.60;;;4.90;99.90;;;;;;4992079;28;20640;-70
2023/01/12 06:03:59;;;;;;;0.50;0.50;;;5.00;99.90;;;;;;4976298;28;20682;-71
2023/01/12 06:06:29;;;;;;;0.50;0.50;;;5.00;99.90;;;;;;4972987;28;20543;-70
2023/01/12 06:08:55;;;;;;;0.60;0.60;;;5.00;99.90;;;;;;4967826;28;20604;-71
2023/01/12 06:14:07;;;;;;;0.50;0.50;;;5.00;99.90;;;;;;4955013;28;20232;-71
2023/01/12 06:16:39;;;;;;;0.70;0.70;;;5.00;99.90;;;;;;4955474;28;20610;-71
2023/01/12 06:19:17;;;;;;;0.98;0.98;;;5.00;99.90;;;;;;4957409;28;20205;-71
2023/01/12 06:21:43;;;;;;;0.70;0.70;;;5.00;99.90;;;;;;4941536;28;20243;-70
2023/01/12 06:24:15;;;;;;;0.55;0.55;;;5.00;99.90;;;;;;4958527;28;20244;-71
2023/01/12 06:26:44;;;;;;;0.50;0.50;;;5.00;99.90;;;;;;4957855;28;20236;-70
2023/01/12 06:29:12;;;;;;;0.50;0.50;;;5.00;99.90;;;;;;4940946;29;20264;-70
2023/01/12 06:31:38;;;;;;;0.57;0.57;;;5.00;99.90;;;;;;4958180;29;20730;-71
2023/01/12 06:34:06;;;;;;;0.60;0.60;;;5.00;99.90;;;;;;4958498;29;20279;-71
2023/01/12 06:36:38;;;;;;;0.60;0.60;;;5.00;99.90;;;;;;4957838;29;20574;-71
2023/01/12 06:39:07;;;;;;;0.55;0.55;;;5.00;99.90;;;;;;4957707;29;20300;-70
2023/01/12 06:44:18;;;;;;;2.92;1.35;;;5.00;99.90;;;;;;4957777;29;20714;-70
2023/01/12 06:46:50;;;;;;;0.60;0.60;;;4.90;99.90;;;;;;4958003;28;20197;-72
2023/01/12 06:49:16;;;;;;;0.55;0.55;;;4.90;99.90;;;;;;4962500;28;20251;-71
2023/01/12 06:51:50;;;;;;;0.88;0.88;;;5.00;99.90;;;;;;4977574;28;20238;-71
2023/01/12 06:54:15;;;;;;;0.50;0.50;;;5.00;99.90;;;;;;4975812;28;20774;-71
2023/01/12 06:56:41;;;;;;;0.60;0.60;;;5.00;99.90;;;;;;4977293;28;20212;-70
2023/01/12 06:59:16;;;;;;;0.60;0.60;;;5.00;99.90;;;;;;4976292;28;20204;-71
2023/01/12 07:01:54;;;;;;;0.60;0.60;;;5.00;99.90;;;;;;4977109;28;20339;-72
2023/01/12 07:04:20;;;;;;;0.50;0.50;;;5.00;99.90;;;;;;4995809;28;20231;-71
2023/01/12 07:06:47;;;;;;;0.70;0.70;;;5.00;99.90;;;;;;4977081;28;20215;-71
2023/01/12 07:09:13;;;;;;;0.32;0.32;;;5.00;99.90;;;;;;4977109;28;20199;-71
2023/01/12 07:11:52;;;;;;;0.50;0.50;;;5.00;99.90;;;;;;4976946;28;20200;-71
2023/01/12 07:14:18;;;;;;;0.50;0.50;;;5.00;99.90;;;;;;4975794;28;20208;-71
2023/01/12 07:16:44;;;;;;;0.65;0.65;;;5.00;99.90;;;;;;4975786;28;20211;-70
2023/01/12 07:19:09;;;;;;;0.52;0.52;;;5.00;99.90;;;;;;4976778;28;20196;-71
2023/01/12 07:21:44;;;;;;;0.70;0.70;;;5.00;99.90;;;;;;4976782;28;20730;-71
2023/01/12 07:24:10;;;;;;;0.55;0.55;;;5.00;99.90;;;;;;4957402;28;20295;-71
2023/01/12 07:26:36;;;;;;;0.80;0.80;;;5.00;99.90;;;;;;4956164;29;20292;-71
2023/01/12 07:29:11;;;;;;;0.60;0.60;;;5.00;99.90;;;;;;4955420;28;20255;-71
2023/01/12 07:31:37;;;;;;;0.60;0.60;;;5.00;99.90;;;;;;4957700;29;20284;-71
2023/01/12 07:34:09;;;;;;;0.60;0.60;;;5.00;99.90;;;;;;4957213;28;20225;-71
2023/01/12 07:36:34;;;;;;;0.80;0.80;;;4.90;99.90;;;;;;4957553;29;20205;-70
2023/01/12 07:39:00;;;;;;;0.50;0.50;;;5.00;99.90;;;;;;4971359;28;20577;-71
2023/01/12 07:44:13;;;;;;;0.50;0.50;;;5.00;99.90;;;;;;4957351;29;20694;-72
2023/01/12 07:49:59;;;;;;;0.50;0.50;;;4.90;99.90;;;;;;4950849;28;20214;-72
2023/01/12 07:52:35;;;;;;;0.50;0.50;;;4.90;99.90;;;;;;4978712;28;20223;-72
2023/01/12 07:55:48;;;;;;;;;;;;;;;;;;;;;
2023/01/12 07:58:20;;;;;;;0.50;0.50;;;4.90;99.90;;;;;;4996134;28;20210;-71
2023/01/12 08:01:22;;;;;;;0.50;0.50;;;4.80;99.90;;;;;;4976942;28;20571;-71
2023/01/12 08:07:25;;;;;;;0.50;0.50;;;4.80;99.90;;;;;;4976144;28;20258;-71
2023/01/12 08:10:17;;;;;;;0.60;0.60;;;4.80;99.90;;;;;;4973171;28;20208;-71
2023/01/12 08:13:00;;;;;;;0.60;0.60;;;4.80;99.90;;;;;;4974488;28;20196;-71
2023/01/12 08:15:37;;;;;;;0.60;0.60;;;4.70;99.90;;;;;;4974622;28;20199;-72
2023/01/12 08:18:31;;;;;;;0.60;0.60;;;4.70;99.90;;;;;;4975615;28;20195;-72
2023/01/12 08:24:11;;;;;;;0.50;0.50;;;4.70;99.90;;;;;;4975811;28;20223;-71
2023/01/12 08:26:41;;;;;;;0.60;0.60;;;4.70;99.90;;;;;;4975606;28;20663;-71
2023/01/12 08:29:48;;;;;;;0.60;0.60;;;4.60;99.90;;;;;;4975940;28;20180;-71
2023/01/12 08:32:31;;;;;;;1.58;1.48;;;4.60;99.90;;;;;;4934581;29;20206;-72
2023/01/12 08:35:02;;;;;;;0.65;0.65;;;4.60;99.90;;;;;;4935237;29;20201;-70
2023/01/12 08:37:59;;;;;;;0.60;0.60;;;4.60;99.90;;;;;;4921724;29;20228;-71
2023/01/12 08:41:31;;;;;;;0.63;0.63;;;4.50;99.90;;;;;;4933263;29;20245;-71
2023/01/12 08:44:00;;;;;;;0.52;0.52;;;4.50;99.90;;;;;;4951733;29;20295;-71
2023/01/12 08:46:16;;;;;;;0.70;0.70;;;4.50;99.90;;;;;;4953757;29;20209;-70
2023/01/12 08:48:46;;;;;;;0.45;0.45;;;4.50;99.90;;;;;;4937945;29;20300;-71
2023/01/12 08:51:16;;;;;;;0.50;0.50;;;4.50;99.90;;;;;;4953837;29;20778;-71
2023/01/12 08:53:48;;;;;;;0.52;0.52;;;4.40;99.90;;;;;;4953696;29;20220;-71
2023/01/12 08:56:24;;;;;;;0.70;0.70;;;4.50;99.90;;;;;;4954037;29;20724;-71
2023/01/12 08:59:00;;;;;;;0.60;0.60;;;4.40;99.90;;;;;;4922028;29;20223;-72
2023/01/12 09:04:41;;;;;;;0.68;0.68;;;4.40;99.90;;;;;;4974663;28;20714;-71
2023/01/12 09:07:26;;;;;;;0.60;0.60;;;4.40;99.90;;;;;;4975644;28;20220;-71
2023/01/12 09:10:13;;;;;;;0.40;0.40;;;4.30;99.90;;;;;;4973929;28;20196;-71
2023/01/12 09:13:18;;;;;;;;;;;;;;;;;;;;;
2023/01/12 09:16:20;;;;;;;0.63;0.63;;;4.40;99.90;;;;;;4974945;28;20671;-71
2023/01/12 09:19:04;;;;;;;0.60;0.60;;;4.30;99.90;;;;;;4974316;28;20291;-71
2023/01/12 09:21:58;;;;;;;0.57;0.57;;;4.30;99.90;;;;;;4971127;28;20240;-71
2023/01/12 09:24:42;;;;;;;0.93;0.65;;;4.40;99.90;;;;;;4972538;28;20264;-71
2023/01/12 09:27:50;;;;;;;0.70;0.70;;;4.40;99.90;;;;;;4974622;28;20671;-71
2023/01/12 09:30:27;;;;;;;0.60;0.60;;;4.40;99.90;;;;;;4975039;28;20219;-70
2023/01/12 09:33:27;;;;;;;0.70;0.70;;;4.30;99.90;;;;;;4974321;28;20195;-71
2023/01/12 09:36:31;;;;;;;;;;;;;;;;;;;;;
2023/01/12 09:39:00;;;;;;;0.55;0.55;;;4.30;99.90;;;;;;4987515;28;20215;-72
2023/01/12 09:48:03;;;;;;;0.50;0.50;;;4.30;99.90;;;;;;4994230;28;20692;-71
2023/01/12 09:50:46;;;;;;;0.60;0.60;;;4.30;99.90;;;;;;4992377;28;20645;-72
2023/01/12 09:56:39;;;;;;;0.50;0.50;;;4.40;99.90;;;;;;4994833;28;20211;-71
2023/01/12 09:59:32;;;;;;;0.52;0.52;;;4.40;99.90;;;;;;5013053;28;20681;-71
2023/01/12 10:02:11;;;;;;;0.50;0.50;;;4.30;99.90;;;;;;5012754;28;20329;-72
2023/01/12 10:04:48;;;;;;;0.77;0.77;;;4.30;99.90;;;;;;4997140;28;20322;-71
2023/01/12 10:07:18;;;;;;;0.60;0.60;;;4.40;99.90;;;;;;4980870;28;20207;-71
2023/01/12 10:09:56;;;;;;;0.70;0.70;;;4.40;99.90;;;;;;4980699;28;20605;-71
2023/01/12 10:12:46;;;;;;;0.50;0.50;;;4.40;99.90;;;;;;4979808;28;20192;-71
2023/01/12 10:15:52;;;;;;;0.50;0.50;;;4.40;99.90;;;;;;4968293;28;20207;-72
2023/01/12 10:18:32;;;;;;;0.55;0.55;;;4.50;99.90;;;;;;4978153;28;20190;-72
2023/01/12 10:21:24;;;;;;;0.68;0.68;;;4.50;99.90;;;;;;4960585;28;20469;-71
2023/01/12 10:24:55;;;;;;;;;;;;;;;;;;;;;
2023/01/12 10:27:25;;;;;;;0.50;0.50;;;4.70;99.90;;;;;;4977790;28;20200;-71
2023/01/12 10:32:40;;;;;;;0.60;0.60;;;4.80;99.90;;;;;;4956373;29;20587;-71
2023/01/12 10:35:37;;;;;;;0.70;0.70;;;4.90;99.90;;;;;;4958438;29;20566;-71
2023/01/12 10:38:28;;;;;;;0.50;0.50;;;5.00;99.90;;;;;;4953338;28;20223;-70
2023/01/12 10:41:19;;;;;;;0.60;0.60;;;5.10;99.90;;;;;;4997123;28;20209;-71
2023/01/12 10:44:00;;;;;;;0.65;0.65;;;5.10;99.90;;;;;;4997265;28;20211;-70
2023/01/12 10:46:59;;;;;;;0.60;0.60;;;5.00;99.90;;;;;;4997127;28;20198;-71
2023/01/12 10:49:31;;;;;;;0.50;0.50;;;5.00;99.90;;;;;;4974402;28;20211;-71
2023/01/12 10:52:28;;;;;;;0.50;0.50;;;4.90;99.90;;;;;;4997113;28;20342;-71
2023/01/12 10:55:05;;;;;;;0.68;0.68;;;4.90;99.90;;;;;;4968953;28;20211;-71
2023/01/12 10:57:47;;;;;;;0.80;0.80;;;4.90;99.90;;;;;;4996667;28;20662;-71
2023/01/12 11:01:01;;;;;;;0.60;0.60;;;4.90;99.90;;;;;;4996678;28;20202;-73
2023/01/12 11:03:49;;;;;;;;;;;;;;;;;;;;;
2023/01/12 11:06:41;;;;;;;0.55;0.55;;;4.80;99.90;;;;;;4996733;28;20202;-71
2023/01/12 11:09:34;;;;;;;0.65;0.65;;;4.80;99.90;;;;;;4956681;28;20193;-70
2023/01/12 11:12:26;;;;;;;0.60;0.60;;;4.80;99.90;;;;;;4956222;28;20201;-71
2023/01/12 11:15:17;;;;;;;0.60;0.60;;;4.80;99.90;;;;;;4956717;28;20197;-71
2023/01/12 11:18:09;;;;;;;0.70;0.70;;;4.80;99.90;;;;;;4957687;28;20208;-71
2023/01/12 11:20:49;;;;;;;0.52;0.52;;;4.80;99.90;;;;;;4956494;28;20644;-71
2023/01/12 11:23:43;;;;;;;0.60;0.60;;;4.70;99.90;;;;;;4956347;28;20201;-71
2023/01/12 11:26:29;;;;;;;0.60;0.60;;;4.70;99.90;;;;;;4957680;28;20232;-72
2023/01/12 11:29:21;;;;;;;0.50;0.50;;;4.60;99.90;;;;;;4973846;28;20208;-71
2023/01/12 11:32:01;;;;;;;0.60;0.60;;;4.60;99.90;;;;;;4974947;28;20551;-71
2023/01/12 11:35:07;;;;;;;0.60;0.60;;;4.50;99.90;;;;;;4976057;28;20227;-71
2023/01/12 11:38:06;;;;;;;0.70;0.70;;;4.60;99.90;;;;;;4977635;28;20274;-71
2023/01/12 11:40:57;;;;;;;0.50;0.50;;;4.50;99.90;;;;;;4994629;28;20555;-71
2023/01/12 11:44:14;;;;;;;0.50;0.50;;;4.50;99.90;;;;;;5011514;28;20212;-71
2023/01/12 11:46:51;;;;;;;0.50;0.50;;;4.40;99.90;;;;;;5011258;28;20203;-72
2023/01/12 11:49:49;;;;;;;0.60;0.60;;;4.50;99.90;;;;;;5010947;28;20573;-71
2023/01/12 11:52:18;;;;;;;0.68;0.68;;;4.50;99.90;;;;;;4995852;28;20195;-72
2023/01/12 11:54:51;;;;;;;0.60;0.60;;;4.50;99.90;;;;;;4994170;28;20294;-71
2023/01/12 11:57:42;;;;;;;0.50;0.50;;;4.50;99.90;;;;;;4994750;28;20660;-72
2023/01/12 12:00:29;;;;;;;0.70;0.70;;;4.50;99.90;;;;;;5011037;28;20203;-71
2023/01/12 12:03:04;;;;;;;0.50;0.50;;;4.40;99.90;;;;;;4993984;28;20199;-71
2023/01/12 12:06:23;;;;;;;0.50;0.50;;;4.40;99.90;;;;;;4956771;29;20295;-71
2023/01/12 12:09:04;;;;;;;0.50;0.50;;;4.40;99.90;;;;;;4897891;29;20673;-72
2023/01/12 12:11:45;;;;;;;0.50;0.50;;;4.40;99.90;;;;;;4897597;29;20230;-71
2023/01/12 12:15:03;;;;;;;0.60;0.60;;;4.40;99.90;;;;;;4897288;29;20230;-71
2023/01/12 12:17:53;;;;;;;0.60;0.60;;;4.40;99.90;;;;;;4876830;29;20715;-72
2023/01/12 12:21:08;;;;;;;0.50;0.50;;;4.30;99.90;;;;;;4897331;29;20241;-71
2023/01/12 12:23:37;;;;;;;0.52;0.52;;;4.30;99.90;;;;;;4874108;29;20751;-70
2023/01/12 12:26:37;;;;;;;0.60;0.60;;;4.30;99.90;;;;;;4878559;29;20229;-71
2023/01/12 12:29:28;;;;;;;0.60;0.60;;;4.30;99.90;;;;;;4862914;29;20206;-70
2023/01/12 12:32:27;;;;;;;0.55;0.55;;;4.30;99.90;;;;;;4878712;29;20240;-71
2023/01/12 12:35:17;;;;;;;0.60;0.60;;;4.30;99.90;;;;;;4863227;29;20214;-70
2023/01/12 12:38:01;;;;;;;0.60;0.60;;;4.30;99.90;;;;;;4880989;29;20214;-70
2023/01/12 12:46:48;;;;;;;0.60;0.60;;;4.30;99.90;;;;;;4956127;29;20566;-71
2023/01/12 12:49:50;;;;;;;0.60;0.60;;;4.30;99.90;;;;;;4939546;28;20352;-70
2023/01/12 12:52:28;;;;;;;0.50;0.50;;;4.30;99.90;;;;;;4955825;28;20204;-71
2023/01/12 12:54:57;;;;;;;0.60;0.60;;;4.30;99.90;;;;;;4939069;28;20204;-71
2023/01/12 12:57:23;;;;;;;0.68;0.68;;;4.30;99.90;;;;;;4954793;28;20680;-71
2023/01/12 12:59:58;;;;;;;0.70;0.70;;;4.30;99.90;;;;;;4956036;28;20193;-71
2023/01/12 13:02:59;;;;;;;0.63;0.63;;;4.30;99.90;;;;;;4955557;29;20703;-71
2023/01/12 13:06:00;;;;;;;0.55;0.55;;;4.30;99.90;;;;;;4915241;29;20296;-70
2023/01/12 13:08:43;;;;;;;0.50;0.50;;;4.30;99.90;;;;;;4915350;29;20213;-70
2023/01/12 13:11:09;;;;;;;5.85;1.75;;;4.30;99.90;;;;;;4899135;29;20269;-71
2023/01/12 13:13:37;;;;;;;0.50;0.50;;;4.30;99.90;;;;;;4899358;29;20214;-70
2023/01/12 13:16:31;;;;;;;0.60;0.60;;;4.30;99.90;;;;;;4915577;29;20198;-72
2023/01/12 13:19:03;;;;;;;0.50;0.50;;;4.30;99.90;;;;;;4915137;29;20730;-71
2023/01/12 13:22:19;;;;;;;0.60;0.60;;;4.30;99.90;;;;;;4914891;29;20205;-71
2023/01/12 13:24:44;;;;;;;0.57;0.57;;;4.30;99.90;;;;;;4899656;29;20454;-71
2023/01/12 13:27:47;;;;;;;0.60;0.60;;;4.30;99.90;;;;;;4914770;29;20292;-70
2023/01/12 13:30:30;;;;;;;0.50;0.50;;;4.30;99.90;;;;;;4915184;29;20202;-71
2023/01/12 13:33:22;;;;;;;1.67;1.33;;;4.30;99.90;;;;;;4899308;29;20206;-71
2023/01/12 13:35:58;;;;;;;0.70;0.70;;;4.30;99.90;;;;;;4915379;29;20206;-70
2023/01/12 13:38:51;;;;;;;0.70;0.70;;;4.30;99.90;;;;;;4904127;29;20317;-69
2023/01/12 13:44:35;;;;;;;0.55;0.55;;;4.30;99.90;;;;;;4936304;29;20220;-72
2023/01/12 13:47:21;;;;;;;0.65;0.65;;;4.30;99.90;;;;;;4919301;29;20208;-71
2023/01/12 13:50:03;;;;;;;0.50;0.50;;;4.30;99.90;;;;;;4936110;29;20202;-70
2023/01/12 13:52:59;;;;;;;0.60;0.60;;;4.30;99.90;;;;;;4935919;29;20208;-72
2023/01/12 13:58:20;;;;;;;0.60;0.60;;;4.30;99.90;;;;;;4944484;28;20213;-71
2023/01/12 14:01:15;;;;;;;0.60;0.60;;;4.30;99.90;;;;;;4954871;29;20203;-71
2023/01/12 14:04:00;;;;;;;0.60;0.60;;;4.20;99.90;;;;;;4942277;28;20311;-71
2023/01/12 14:06:37;;;;;;;0.90;0.90;;;4.20;99.90;;;;;;4974299;28;20194;-71
2023/01/12 14:09:48;;;;;;;0.60;0.60;;;4.20;99.90;;;;;;4973556;28;20232;-70
2023/01/12 14:12:33;;;;;;;0.70;0.70;;;4.20;99.90;;;;;;4956223;28;20742;-71
2023/01/12 14:18:17;;;;;;;0.60;0.60;;;4.20;99.90;;;;;;4954773;28;20219;-70
2023/01/12 14:20:45;;;;;;;0.50;0.50;;;4.20;99.90;;;;;;4954716;29;20205;-71
2023/01/12 14:23:32;;;;;;;0.50;0.50;;;4.20;99.90;;;;;;4937814;28;20209;-71
2023/01/12 14:26:37;;;;;;;0.60;0.60;;;4.20;99.90;;;;;;4937653;29;20205;-71
2023/01/12 14:29:12;;;;;;;0.80;0.80;;;4.10;99.90;;;;;;4948800;29;20212;-71
2023/01/12 14:31:42;;;;;;;0.45;0.45;;;4.10;99.90;;;;;;4953674;28;20213;-71
2023/01/12 14:34:31;;;;;;;1.00;0.95;;;4.00;99.90;;;;;;4946961;28;20214;-71
2023/01/12 14:37:21;;;;;;;0.60;0.60;;;3.90;99.90;;;;;;4975935;28;20284;-71
2023/01/12 14:39:47;;;;;;;0.60;0.60;;;3.90;99.90;;;;;;4940800;28;20207;-71
2023/01/12 14:48:27;;;;;;;0.60;0.60;;;3.70;99.90;;;;;;4958606;29;20192;-70
2023/01/12 14:51:24;;;;;;;0.60;0.60;;;3.70;99.90;;;;;;4958058;29;20196;-71
2023/01/12 14:54:21;;;;;;;0.70;0.70;;;3.70;99.90;;;;;;4975374;28;20605;-71
2023/01/12 14:57:55;;;;;;;0.70;0.70;;;3.60;99.90;;;;;;4956178;28;20215;-71
2023/01/12 15:00:27;;;;;;;3.97;1.40;;;3.60;99.90;;;;;;4936427;29;20201;-71
2023/01/12 15:03:01;;;;;;;18.50;3.35;;;3.60;99.90;;;;;;4936482;29;20260;-71
2023/01/12 15:05:43;;;;;;;1.75;1.65;;;3.70;99.90;;;;;;4936166;29;20234;-71
2023/01/12 15:08:12;;;;;;;0.65;0.65;;;3.70;99.90;;;;;;4936647;29;20769;-71
2023/01/12 15:10:42;;;;;;;1.80;1.48;;;3.70;99.90;;;;;;4934790;29;20202;-71
2023/01/12 15:13:28;;;;;;;2.47;2.28;;;3.70;99.90;;;;;;4928602;29;20205;-70
2023/01/12 15:27:07;;;;;;;0.50;0.50;;;3.70;99.90;;;;;;4936384;29;20208;-71
2023/01/12 15:29:33;;;;;;;0.70;0.70;;;3.70;99.90;;;;;;4936014;29;20209;-71